Airfield :
LOGIN :

Register | Disclaimer

   EN    FR    IT 

 










Legend :    VFR   Marginal VFR   IFR   Intensive IFR   Very Intensive IFR
Visi :
Ceiling :
>= 8 km
>= 3000ft
5 to 8 km
1000 to 3000 ft
1500m to 5 km
500 to 1000 ft
800 to 1500m
200 to 500 ft
< 800m
< 200 ft
Symbols :   Thunderstorms  Fog  Heavy snow  Heavy precipitations  Wind > 20 kt
SIGMETs :     Misc.  Thunderstorms  Icing  Turbulence  Mountain Waves  Volcanic Ashes







- Airport Elevation : 353 ft
- IATA code : ZAG


LDZA - Zagreb Pleso

CURRENT METAR :
  • 230730Z 29003KT 230V010 CAVOK 09/07 Q1025 NOSIG

EXPIRED METARs :
  • 230700Z 26004KT 230V300 CAVOK 08/06 Q1025 NOSIG
  • 230630Z VRB02KT CAVOK 06/05 Q1025 NOSIG
  • 230600Z VRB02KT CAVOK 05/04 Q1025 NOSIG
  • 230530Z 25003KT CAVOK 05/03 Q1025 NOSIG
  • 230500Z 23005KT CAVOK 05/03 Q1025 NOSIG
  • 230430Z 22004KT CAVOK 05/04 Q1025 NOSIG

TAF TAF LDZA
Valid from the 23 at 06:00 until the 24 at 06:00 UTC


230525Z 2306/2406 VRB02KT CAVOK TX15/2313Z TN06/2306Z
PROB40
TEMPO 2312/2318 23008KT
ATIS : +385 1 6-259-214
No reported NOTAMs for that airfield.
1 SIGMET reported for the Zagreb FIR (LDZO) :
 
Severe turbulence
LDZO SIGMET 1 VALID 230400/230800 LDZA
LDZO ZAGREB FIR SEV TURB FCST WI N4459 E01543 - N4348 E01643 - N4318 E01553 - N4517 E01258 - N4533 E01322 - N4542 E01435 - N4459 E01543 SFC/6000FT STNR NC=



MET'MAP, your aeronautical weather chart ! - Copyright ORBIFLY December 2007 - Disclaimer

ORBIFLY MET'MAP TEAM :

Programming & Development : Alexandra Zaïnal
Concept & Development : Baudouin d'Aumeries
Co-Development & Prog : Marc-Olivier Méhu
Technical & hardware support : Manuel Goepfert

Contact : metmap@orbifly.com




SOURCES & CREDITS :

   NOAA